Time;durP1;ratioP1;P1;durP2;ratioP2;P2;SDS_P1;SDS_P2;PMS_P1;PMS_P2;Temp;Humidity;BMP_temperature;BMP_pressure;BME280_temperature;BME280_humidity;BME280_pressure;Samples;Min_cycle;Max_cycle;Signal;HPM_P1;HPM_P2
2021/04/18 00:00:34;;;;;;;6.32;2.42;;;9.20;57.70;;;;;;4965684;28;20073;-77
2021/04/18 00:03:00;;;;;;;5.40;2.22;;;9.20;57.90;;;;;;4951800;28;20899;-78
2021/04/18 00:05:29;;;;;;;7.20;2.85;;;9.20;58.00;;;;;;4951819;28;20045;-78
2021/04/18 00:08:02;;;;;;;5.28;2.35;;;9.30;58.20;;;;;;4946452;28;20478;-78
2021/04/18 00:10:38;;;;;;;5.18;2.42;;;9.30;57.80;;;;;;4966742;28;20037;-77
2021/04/18 00:13:05;;;;;;;10.35;4.30;;;9.30;57.80;;;;;;4969471;28;20030;-77
2021/04/18 00:15:31;;;;;;;7.07;2.53;;;9.20;58.00;;;;;;4960803;28;20031;-77
2021/04/18 00:17:57;;;;;;;5.15;2.65;;;9.30;58.00;;;;;;4945915;28;20022;-77
2021/04/18 00:20:23;;;;;;;6.00;2.58;;;9.20;58.10;;;;;;4968493;28;20120;-76
2021/04/18 00:22:51;;;;;;;4.82;2.33;;;9.20;58.20;;;;;;4947606;28;20031;-76
2021/04/18 00:25:19;;;;;;;5.18;2.63;;;9.20;58.30;;;;;;4962213;28;20027;-78
2021/04/18 00:27:45;;;;;;;6.57;2.53;;;9.20;58.60;;;;;;4960772;28;20052;-75
2021/04/18 00:30:18;;;;;;;6.47;2.50;;;9.20;58.90;;;;;;4960532;28;20170;-77
2021/04/18 00:32:44;;;;;;;7.63;2.45;;;9.20;58.80;;;;;;4950933;28;20035;-77
2021/04/18 00:35:12;;;;;;;6.75;2.22;;;9.10;58.90;;;;;;4971580;28;20086;-77
2021/04/18 00:37:41;;;;;;;4.53;2.08;;;9.10;59.10;;;;;;4961544;28;20035;-76
2021/04/18 00:40:12;;;;;;;7.55;2.33;;;9.10;59.00;;;;;;4963521;28;20095;-80
2021/04/18 00:42:38;;;;;;;5.05;2.40;;;9.10;58.90;;;;;;4949598;28;20033;-78
2021/04/18 00:45:08;;;;;;;4.13;1.98;;;9.10;59.30;;;;;;4963130;28;20065;-76
2021/04/18 00:47:37;;;;;;;6.67;2.77;;;9.10;59.30;;;;;;4970136;28;20031;-76
2021/04/18 00:50:04;;;;;;;5.05;2.53;;;9.40;59.40;;;;;;4962023;28;20042;-75
2021/04/18 00:52:29;;;;;;;5.63;2.42;;;9.10;59.40;;;;;;4954038;28;20058;-77
2021/04/18 00:54:55;;;;;;;7.57;2.60;;;9.10;59.50;;;;;;4946117;28;20133;-74
2021/04/18 00:57:21;;;;;;;6.07;2.60;;;9.10;59.90;;;;;;4951278;28;20030;-76
2021/04/18 00:59:47;;;;;;;4.50;2.50;;;9.10;59.90;;;;;;4951155;28;20758;-76
2021/04/18 01:02:13;;;;;;;5.90;2.50;;;9.10;60.00;;;;;;4948330;28;20031;-76
2021/04/18 01:04:39;;;;;;;10.93;2.40;;;9.00;60.20;;;;;;4950665;28;20086;-76
2021/04/18 01:07:05;;;;;;;5.88;2.70;;;9.10;60.00;;;;;;4937843;28;20031;-76
2021/04/18 01:09:31;;;;;;;9.30;2.72;;;9.10;60.10;;;;;;4953315;28;20035;-76
2021/04/18 01:11:57;;;;;;;6.45;2.58;;;9.00;60.70;;;;;;4961635;28;20073;-76
2021/04/18 01:14:23;;;;;;;6.28;2.50;;;9.00;61.00;;;;;;4953640;28;20051;-77
2021/04/18 01:16:49;;;;;;;7.75;2.50;;;9.00;60.70;;;;;;4950030;28;20027;-76
2021/04/18 01:19:14;;;;;;;5.25;2.67;;;9.00;60.60;;;;;;4949364;28;20023;-75
2021/04/18 01:21:41;;;;;;;5.60;2.83;;;9.00;60.70;;;;;;4945496;28;20027;-77
2021/04/18 01:24:07;;;;;;;8.15;2.40;;;9.00;60.60;;;;;;4972150;28;20107;-77
2021/04/18 01:26:35;;;;;;;5.78;2.58;;;9.00;60.50;;;;;;4968504;28;20031;-76
2021/04/18 01:29:01;;;;;;;4.13;2.30;;;9.00;60.60;;;;;;4964420;28;20026;-76
2021/04/18 01:31:26;;;;;;;7.88;2.85;;;9.00;60.70;;;;;;4968180;28;20110;-78
2021/04/18 01:33:53;;;;;;;7.53;2.63;;;9.00;60.70;;;;;;4950881;28;20051;-76
2021/04/18 01:36:19;;;;;;;4.95;2.55;;;9.00;61.00;;;;;;4966438;28;20027;-80
2021/04/18 01:38:45;;;;;;;5.65;2.58;;;9.00;60.90;;;;;;4965302;28;20052;-77
2021/04/18 01:41:11;;;;;;;6.65;2.35;;;9.00;61.00;;;;;;4964625;28;20022;-76
2021/04/18 01:43:40;;;;;;;4.88;2.72;;;8.90;61.10;;;;;;4948608;28;20042;-75
2021/04/18 01:46:08;;;;;;;4.28;2.28;;;8.90;61.20;;;;;;4966993;28;20492;-76
2021/04/18 01:48:37;;;;;;;6.32;2.40;;;8.90;61.40;;;;;;4964661;28;20086;-78
2021/04/18 01:51:06;;;;;;;5.10;2.42;;;8.90;61.60;;;;;;4945956;28;20066;-77
2021/04/18 01:53:32;;;;;;;7.13;2.83;;;8.90;61.80;;;;;;4945354;28;20037;-76
2021/04/18 01:55:58;;;;;;;6.20;2.65;;;8.90;62.10;;;;;;4960332;28;20610;-76
2021/04/18 01:58:26;;;;;;;6.18;2.60;;;8.80;62.20;;;;;;4950883;28;20037;-79
2021/04/18 02:00:52;;;;;;;7.38;2.80;;;8.90;62.40;;;;;;4951862;28;20035;-75
2021/04/18 02:03:18;;;;;;;5.45;2.47;;;8.80;62.60;;;;;;4952087;28;20026;-77
2021/04/18 02:05:43;;;;;;;4.03;2.50;;;8.80;62.70;;;;;;4950717;28;20027;-79
2021/04/18 02:08:09;;;;;;;8.82;2.78;;;8.80;62.90;;;;;;4950937;28;20406;-77
2021/04/18 02:10:35;;;;;;;5.63;2.75;;;8.80;62.70;;;;;;4943594;28;20035;-76
2021/04/18 02:13:00;;;;;;;5.60;2.30;;;8.70;62.90;;;;;;4949379;28;20030;-77
2021/04/18 02:15:26;;;;;;;7.13;2.80;;;8.70;62.80;;;;;;4950438;28;20027;-75
2021/04/18 02:17:53;;;;;;;6.70;2.80;;;8.70;63.30;;;;;;4947622;28;20497;-79
2021/04/18 02:20:19;;;;;;;4.95;2.17;;;8.80;63.10;;;;;;4966859;28;20078;-76
2021/04/18 02:22:45;;;;;;;6.07;2.33;;;8.70;63.00;;;;;;4963448;28;20026;-76
2021/04/18 02:25:12;;;;;;;4.93;2.60;;;8.70;63.00;;;;;;4944957;28;20786;-80
2021/04/18 02:27:38;;;;;;;5.30;2.47;;;8.70;63.10;;;;;;4963031;28;20113;-76
2021/04/18 02:30:05;;;;;;;6.15;2.35;;;8.80;63.40;;;;;;4948850;28;20027;-77
2021/04/18 02:32:31;;;;;;;3.75;2.05;;;8.70;62.90;;;;;;4961643;28;20118;-76
2021/04/18 02:34:57;;;;;;;8.65;2.63;;;8.70;63.50;;;;;;4968480;28;20094;-76
2021/04/18 02:37:23;;;;;;;7.15;2.28;;;8.70;63.30;;;;;;4952114;28;20026;-77
2021/04/18 02:39:48;;;;;;;7.15;2.45;;;8.70;63.30;;;;;;4950252;28;20035;-76
2021/04/18 02:42:14;;;;;;;4.70;2.40;;;8.70;63.20;;;;;;4945038;28;20097;-76
2021/04/18 02:44:39;;;;;;;4.13;2.05;;;8.70;63.50;;;;;;4947919;28;20375;-77
2021/04/18 02:47:05;;;;;;;4.20;2.13;;;8.70;64.00;;;;;;4949033;28;20026;-76
2021/04/18 02:49:31;;;;;;;4.82;2.50;;;8.70;64.00;;;;;;4957571;28;20494;-76
2021/04/18 02:51:57;;;;;;;7.93;2.13;;;8.60;64.00;;;;;;4948713;28;20065;-81
2021/04/18 02:54:23;;;;;;;4.30;2.33;;;8.60;64.10;;;;;;4952478;28;20501;-76
2021/04/18 02:56:49;;;;;;;5.20;2.20;;;8.60;64.20;;;;;;4949790;28;20393;-76
2021/04/18 02:59:15;;;;;;;8.40;2.58;;;8.60;64.10;;;;;;4963681;28;20027;-76
2021/04/18 03:01:40;;;;;;;6.40;2.88;;;8.60;64.30;;;;;;4948329;28;20059;-76
2021/04/18 03:04:06;;;;;;;5.05;2.65;;;8.60;64.10;;;;;;4954853;28;20027;-78
2021/04/18 03:06:32;;;;;;;5.43;2.58;;;8.60;63.90;;;;;;4946558;28;20117;-78
2021/04/18 03:08:58;;;;;;;7.07;2.60;;;8.60;63.80;;;;;;4955177;28;20126;-78
2021/04/18 03:11:24;;;;;;;5.47;2.67;;;8.60;63.90;;;;;;4944829;28;20319;-77
2021/04/18 03:13:50;;;;;;;7.97;2.75;;;8.60;64.30;;;;;;4944160;28;20134;-75
2021/04/18 03:16:15;;;;;;;6.57;2.95;;;8.60;63.70;;;;;;4963102;28;21800;-76
2021/04/18 03:18:41;;;;;;;7.88;2.60;;;8.60;64.10;;;;;;4951769;28;20609;-77
2021/04/18 03:21:07;;;;;;;8.75;2.72;;;8.60;64.10;;;;;;4951055;28;20034;-77
2021/04/18 03:23:33;;;;;;;5.38;2.60;;;8.70;64.20;;;;;;4946399;28;20067;-78
2021/04/18 03:25:59;;;;;;;6.25;3.08;;;8.70;64.40;;;;;;4964856;28;20062;-76
2021/04/18 03:28:25;;;;;;;9.18;3.10;;;8.60;64.30;;;;;;4957219;28;20389;-76
2021/04/18 03:30:51;;;;;;;6.47;3.42;;;8.60;64.50;;;;;;4959142;28;20417;-77
2021/04/18 03:33:17;;;;;;;5.65;2.67;;;8.60;64.70;;;;;;4947932;28;20019;-79
2021/04/18 03:35:43;;;;;;;4.95;2.80;;;8.60;64.90;;;;;;4960151;28;20031;-80
2021/04/18 03:38:09;;;;;;;9.48;3.10;;;8.70;65.10;;;;;;4952565;28;20058;-74
2021/04/18 03:40:38;;;;;;;7.18;2.90;;;8.60;65.20;;;;;;4949982;28;20088;-77
2021/04/18 03:43:04;;;;;;;5.95;2.97;;;8.60;65.30;;;;;;4964909;28;20034;-77
2021/04/18 03:45:30;;;;;;;5.18;2.72;;;8.70;65.20;;;;;;4951881;28;20050;-78
2021/04/18 03:47:56;;;;;;;7.05;2.80;;;8.70;65.10;;;;;;4954049;28;20027;-77
2021/04/18 03:50:21;;;;;;;5.40;2.90;;;8.70;65.40;;;;;;4955201;28;20402;-76
2021/04/18 03:52:48;;;;;;;5.95;2.80;;;8.60;65.70;;;;;;4949834;28;20125;-77
2021/04/18 03:55:15;;;;;;;10.35;2.60;;;8.60;66.40;;;;;;4966292;28;20481;-78
2021/04/18 03:57:43;;;;;;;6.20;2.75;;;8.60;66.80;;;;;;4967404;28;20173;-77
2021/04/18 04:00:10;;;;;;;5.40;2.58;;;8.60;67.00;;;;;;4954946;28;20031;-76
2021/04/18 04:02:36;;;;;;;5.82;2.70;;;8.60;67.10;;;;;;4951601;28;20045;-77
2021/04/18 04:05:02;;;;;;;5.72;2.67;;;8.60;67.50;;;;;;4973330;28;20035;-81
2021/04/18 04:07:28;;;;;;;6.10;2.40;;;8.60;67.20;;;;;;4961125;28;20043;-76
2021/04/18 04:09:53;;;;;;;6.70;3.08;;;8.60;67.60;;;;;;4972933;28;20102;-80
2021/04/18 04:12:24;;;;;;;7.45;2.95;;;8.60;68.40;;;;;;4953454;28;20126;-76
2021/04/18 04:14:51;;;;;;;7.32;3.10;;;8.60;68.40;;;;;;4967982;28;20054;-79
2021/04/18 04:17:16;;;;;;;6.05;2.63;;;8.60;69.60;;;;;;4959044;28;20031;-76
2021/04/18 04:19:42;;;;;;;7.47;2.80;;;8.60;69.20;;;;;;4958180;28;20049;-78
2021/04/18 04:22:07;;;;;;;5.70;2.50;;;8.60;69.40;;;;;;4976206;28;20030;-76
2021/04/18 04:24:33;;;;;;;7.13;2.97;;;8.70;69.90;;;;;;4962260;28;20053;-77
2021/04/18 04:26:59;;;;;;;8.23;3.50;;;8.50;70.30;;;;;;4950712;28;20026;-77
2021/04/18 04:29:24;;;;;;;5.43;2.70;;;8.50;70.10;;;;;;4951829;28;20030;-75
2021/04/18 04:31:50;;;;;;;5.68;2.55;;;8.50;70.20;;;;;;4952828;28;20061;-77
2021/04/18 04:34:15;;;;;;;5.18;2.33;;;8.50;70.10;;;;;;4963585;28;20030;-77
2021/04/18 04:36:41;;;;;;;6.13;2.50;;;8.60;70.20;;;;;;4955550;28;20027;-76
2021/04/18 04:39:07;;;;;;;7.00;2.92;;;8.50;70.40;;;;;;4977374;28;20095;-76
2021/04/18 04:41:33;;;;;;;6.32;2.50;;;8.50;70.50;;;;;;4952221;28;20411;-77
2021/04/18 04:43:59;;;;;;;7.88;2.60;;;8.40;70.70;;;;;;4956099;28;20035;-78
2021/04/18 04:46:24;;;;;;;5.78;2.60;;;8.50;71.20;;;;;;4968279;28;20509;-76
2021/04/18 04:48:50;;;;;;;9.27;2.63;;;8.40;71.40;;;;;;4953922;28;20041;-81
2021/04/18 04:51:16;;;;;;;7.40;2.45;;;9.40;71.90;;;;;;4952261;28;20037;-76
2021/04/18 04:53:41;;;;;;;6.22;2.53;;;8.40;71.40;;;;;;4953672;28;20485;-77
2021/04/18 04:56:07;;;;;;;7.72;2.88;;;8.30;71.80;;;;;;4956652;28;20027;-75
2021/04/18 04:58:32;;;;;;;6.95;2.80;;;8.80;71.60;;;;;;4959014;28;20018;-77
2021/04/18 05:00:58;;;;;;;8.40;3.50;;;8.40;71.20;;;;;;4957980;28;20394;-77
2021/04/18 05:03:27;;;;;;;7.75;2.90;;;8.40;71.10;;;;;;4953203;28;20035;-75
2021/04/18 05:05:54;;;;;;;7.07;3.00;;;8.40;71.00;;;;;;4954576;28;20113;-78
2021/04/18 05:08:20;;;;;;;7.90;3.05;;;9.80;72.00;;;;;;4951911;28;20041;-77
2021/04/18 05:10:48;;;;;;;8.07;3.10;;;8.40;71.00;;;;;;4957081;28;20027;-76
2021/04/18 05:13:14;;;;;;;6.65;3.17;;;8.40;70.70;;;;;;4944736;28;20026;-77
2021/04/18 05:15:40;;;;;;;6.50;3.30;;;8.50;71.20;;;;;;4967885;28;20039;-80
2021/04/18 05:18:06;;;;;;;7.25;3.17;;;8.50;71.50;;;;;;4972332;28;20584;-79
2021/04/18 05:20:31;;;;;;;7.43;3.35;;;8.50;71.20;;;;;;4953321;28;20532;-81
2021/04/18 05:22:58;;;;;;;5.93;2.97;;;8.50;71.50;;;;;;4944428;28;20034;-78
2021/04/18 05:25:24;;;;;;;6.05;2.95;;;8.60;71.50;;;;;;4932679;28;20125;-76
2021/04/18 05:27:50;;;;;;;8.65;3.38;;;8.80;71.70;;;;;;4952060;28;20239;-76
2021/04/18 05:30:16;;;;;;;7.43;3.30;;;8.60;71.70;;;;;;4953514;28;20112;-75
2021/04/18 05:32:41;;;;;;;8.57;3.45;;;8.60;71.80;;;;;;4970625;28;20038;-75
2021/04/18 05:35:08;;;;;;;8.30;3.70;;;9.60;72.40;;;;;;4953217;28;20039;-75
2021/04/18 05:37:34;;;;;;;8.05;3.72;;;8.70;71.60;;;;;;4959816;28;20501;-80
2021/04/18 05:40:00;;;;;;;7.97;3.70;;;8.70;71.60;;;;;;4961195;28;20034;-77
2021/04/18 05:42:26;;;;;;;8.13;3.05;;;8.80;71.50;;;;;;4951193;28;20057;-76
2021/04/18 05:44:52;;;;;;;10.05;3.80;;;8.80;72.20;;;;;;4952864;28;20198;-77
2021/04/18 05:47:17;;;;;;;7.55;3.30;;;8.90;71.70;;;;;;4953162;28;20035;-77
2021/04/18 05:49:43;;;;;;;8.70;3.60;;;8.90;71.00;;;;;;4961741;28;20561;-78
2021/04/18 05:52:09;;;;;;;8.95;3.83;;;9.00;70.90;;;;;;4947896;28;20027;-77
2021/04/18 05:54:35;;;;;;;6.30;3.35;;;9.30;70.80;;;;;;4964208;28;20167;-77
2021/04/18 05:57:00;;;;;;;8.02;3.80;;;9.20;70.80;;;;;;4948896;28;20029;-75
2021/04/18 05:59:26;;;;;;;7.07;3.75;;;9.20;70.20;;;;;;4950997;28;20031;-77
2021/04/18 06:01:52;;;;;;;8.23;4.15;;;9.50;70.60;;;;;;4950067;28;20061;-77
2021/04/18 06:04:17;;;;;;;7.72;3.97;;;9.40;70.10;;;;;;4954904;28;20042;-77
2021/04/18 06:06:43;;;;;;;7.28;3.70;;;9.40;70.20;;;;;;4971289;28;20081;-78
2021/04/18 06:09:09;;;;;;;7.88;4.05;;;9.40;69.70;;;;;;4968330;28;20521;-76
2021/04/18 06:11:34;;;;;;;7.05;3.65;;;9.40;70.10;;;;;;4963734;28;20035;-77
2021/04/18 06:14:00;;;;;;;9.60;4.20;;;9.40;70.40;;;;;;4966196;28;20120;-76
2021/04/18 06:16:25;;;;;;;9.90;4.25;;;9.40;70.20;;;;;;4965658;28;20109;-77
2021/04/18 06:18:51;;;;;;;8.15;4.30;;;9.50;70.70;;;;;;4954094;28;20113;-75
2021/04/18 06:21:20;;;;;;;12.15;4.28;;;9.50;70.20;;;;;;4955193;28;20027;-76
2021/04/18 06:23:46;;;;;;;10.82;4.75;;;9.60;70.00;;;;;;4966127;28;20482;-76
2021/04/18 06:26:12;;;;;;;9.90;4.30;;;9.70;70.00;;;;;;4952468;28;20035;-77
2021/04/18 06:28:38;;;;;;;10.68;4.15;;;9.80;68.60;;;;;;4949274;28;20023;-77
2021/04/18 06:31:04;;;;;;;11.30;4.88;;;9.80;68.80;;;;;;4951741;28;20042;-80
2021/04/18 06:33:30;;;;;;;10.82;5.00;;;9.90;68.60;;;;;;4949466;28;20493;-77
2021/04/18 06:35:56;;;;;;;7.93;4.05;;;9.90;68.10;;;;;;4966721;28;20026;-77
2021/04/18 06:38:21;;;;;;;10.05;4.50;;;9.80;69.20;;;;;;4962166;28;20241;-76
2021/04/18 06:40:51;;;;;;;10.07;4.85;;;9.70;69.30;;;;;;4956741;28;20053;-76
2021/04/18 06:43:20;;;;;;;7.32;4.28;;;9.70;69.80;;;;;;4962027;28;20027;-78
2021/04/18 06:45:49;;;;;;;11.38;5.22;;;9.80;69.30;;;;;;4964117;28;20034;-76
2021/04/18 06:48:15;;;;;;;9.80;5.43;;;9.90;68.40;;;;;;4968079;28;20164;-76
2021/04/18 06:50:43;;;;;;;12.50;5.70;;;10.00;68.40;;;;;;4946856;28;20139;-83
2021/04/18 06:53:09;;;;;;;11.88;6.15;;;10.10;66.80;;;;;;4955958;28;20064;-76
2021/04/18 06:55:36;;;;;;;10.63;5.88;;;9.90;67.30;;;;;;4948266;28;20030;-77
2021/04/18 06:58:02;;;;;;;10.73;5.47;;;9.90;67.70;;;;;;4937672;28;20045;-76
2021/04/18 07:00:27;;;;;;;9.18;5.68;;;9.80;67.70;;;;;;4957024;28;20027;-77
2021/04/18 07:03:07;;;;;;;15.57;6.15;;;9.90;67.80;;;;;;4953428;28;20049;-75
2021/04/18 07:05:44;;;;;;;13.57;6.35;;;10.10;67.20;;;;;;4932566;28;20122;-78
2021/04/18 07:08:33;;;;;;;13.23;6.13;;;10.20;66.20;;;;;;4941975;28;20054;-75
2021/04/18 07:11:18;;;;;;;10.82;6.13;;;10.20;66.70;;;;;;4950148;28;20041;-76
2021/04/18 07:13:45;;;;;;;13.15;6.03;;;10.40;65.30;;;;;;4960813;28;20027;-77
2021/04/18 07:16:28;;;;;;;10.88;5.80;;;10.40;65.10;;;;;;4952178;28;20080;-78
2021/04/18 07:18:55;;;;;;;10.18;5.50;;;10.40;65.90;;;;;;4959392;28;20039;-80
2021/04/18 07:21:21;;;;;;;12.65;6.32;;;10.40;65.70;;;;;;4946591;28;20504;-77
2021/04/18 07:23:47;;;;;;;11.90;5.80;;;10.60;65.30;;;;;;4946319;28;20032;-76
2021/04/18 07:26:21;;;;;;;14.35;6.68;;;10.60;64.80;;;;;;4946610;28;20059;-76
2021/04/18 07:28:48;;;;;;;14.25;6.97;;;10.60;64.90;;;;;;4962170;28;20023;-77
2021/04/18 07:31:31;;;;;;;12.88;6.13;;;10.80;64.50;;;;;;4948979;28;22556;-76
2021/04/18 07:34:02;;;;;;;13.15;6.47;;;10.90;64.70;;;;;;4964139;28;20031;-77
2021/04/18 07:36:31;;;;;;;11.90;7.13;;;11.00;63.90;;;;;;4962779;28;20032;-76
2021/04/18 07:38:57;;;;;;;12.70;6.72;;;11.20;63.00;;;;;;4953108;28;20476;-79
2021/04/18 07:41:24;;;;;;;11.82;7.28;;;11.40;62.90;;;;;;4950621;28;20030;-76
2021/04/18 07:43:50;;;;;;;11.48;7.22;;;11.40;62.50;;;;;;4965926;28;20033;-76
2021/04/18 07:46:18;;;;;;;14.60;6.63;;;11.50;62.70;;;;;;4948571;28;20026;-79
2021/04/18 07:48:44;;;;;;;13.85;7.57;;;11.60;62.30;;;;;;4966411;28;20345;-78
2021/04/18 07:51:10;;;;;;;11.90;7.13;;;11.70;61.80;;;;;;4955832;28;20026;-76
2021/04/18 07:53:37;;;;;;;11.68;6.15;;;11.90;61.50;;;;;;4965493;28;20434;-77
2021/04/18 07:56:10;;;;;;;11.70;6.85;;;12.20;61.40;;;;;;4950355;28;20046;-75
2021/04/18 07:58:38;;;;;;;11.27;7.13;;;12.10;60.50;;;;;;4949619;28;20050;-79
2021/04/18 08:01:04;;;;;;;15.48;7.22;;;12.00;60.70;;;;;;4959358;28;20565;-78
2021/04/18 08:03:32;;;;;;;13.18;7.63;;;12.10;60.70;;;;;;4956510;28;20114;-78
2021/04/18 08:05:59;;;;;;;12.65;7.32;;;12.10;60.40;;;;;;4960157;28;20037;-78
2021/04/18 08:08:40;;;;;;;13.07;7.65;;;12.20;61.00;;;;;;4969373;28;20039;-77
2021/04/18 08:11:10;;;;;;;15.57;9.10;;;12.30;60.40;;;;;;4949233;28;20063;-81
2021/04/18 08:13:48;;;;;;;15.68;8.15;;;12.50;60.70;;;;;;4944895;28;20406;-77
2021/04/18 08:16:16;;;;;;;14.32;7.90;;;12.50;60.30;;;;;;4950739;28;20482;-79
2021/04/18 08:18:46;;;;;;;18.45;8.15;;;12.40;60.70;;;;;;4946716;28;20042;-77
2021/04/18 08:21:26;;;;;;;15.18;8.68;;;12.30;61.10;;;;;;4949864;28;20093;-77
2021/04/18 08:23:53;;;;;;;13.45;8.07;;;12.30;61.10;;;;;;4966366;28;20058;-76
2021/04/18 08:26:20;;;;;;;15.25;8.57;;;12.30;61.70;;;;;;4959180;28;20472;-77
2021/04/18 08:28:54;;;;;;;15.45;8.70;;;12.30;61.60;;;;;;4951151;28;20553;-77
2021/04/18 08:31:23;;;;;;;16.27;9.50;;;12.40;61.60;;;;;;4939368;28;20027;-75
2021/04/18 08:33:52;;;;;;;16.52;9.65;;;12.90;61.50;;;;;;4955492;28;20390;-77
2021/04/18 08:36:26;;;;;;;14.63;8.88;;;12.80;60.70;;;;;;4958832;28;20022;-79
2021/04/18 08:39:01;;;;;;;14.48;8.27;;;13.00;60.50;;;;;;4961352;28;20099;-78
2021/04/18 08:41:54;;;;;;;16.25;8.95;;;13.10;59.90;;;;;;4956073;28;20376;-77
2021/04/18 08:44:36;;;;;;;15.18;8.55;;;13.00;60.40;;;;;;4941445;28;20034;-78
2021/04/18 08:47:05;;;;;;;15.40;9.00;;;13.00;61.10;;;;;;4955023;28;20786;-77
2021/04/18 08:49:32;;;;;;;16.27;9.10;;;13.00;61.50;;;;;;4947657;28;20034;-78
2021/04/18 08:52:01;;;;;;;16.05;8.55;;;12.80;61.00;;;;;;4935961;28;22290;-78
2021/04/18 08:54:38;;;;;;;13.80;8.27;;;12.70;62.10;;;;;;4954784;28;20035;-77
2021/04/18 08:57:10;;;;;;;18.27;8.57;;;12.80;62.10;;;;;;4948149;28;20054;-78
2021/04/18 08:59:44;;;;;;;15.68;8.60;;;12.70;62.50;;;;;;4977287;28;20039;-78
2021/04/18 09:02:12;;;;;;;15.18;8.88;;;12.60;63.00;;;;;;4954455;28;20122;-78
2021/04/18 09:04:42;;;;;;;14.95;8.85;;;12.40;63.80;;;;;;4956882;28;20038;-80
2021/04/18 09:07:14;;;;;;;12.93;7.75;;;12.40;64.30;;;;;;4982635;28;20034;-79
2021/04/18 09:09:41;;;;;;;14.73;8.30;;;12.30;64.70;;;;;;4969212;28;20054;-77
2021/04/18 09:12:08;;;;;;;11.95;7.40;;;12.30;65.00;;;;;;4959756;28;20412;-77
2021/04/18 09:14:36;;;;;;;11.30;7.22;;;12.20;65.60;;;;;;4943878;28;20032;-78
2021/04/18 09:17:11;;;;;;;10.85;7.00;;;12.30;66.30;;;;;;4934693;28;20034;-77
2021/04/18 09:19:37;;;;;;;11.50;6.82;;;12.10;66.90;;;;;;4943555;28;20019;-78
2021/04/18 09:22:06;;;;;;;12.18;7.32;;;12.10;67.50;;;;;;4960368;28;20110;-81
2021/04/18 09:24:42;;;;;;;10.77;6.75;;;11.90;69.00;;;;;;4961942;28;20031;-83
2021/04/18 09:27:32;;;;;;;11.07;6.25;;;11.80;70.20;;;;;;4963260;28;20041;-80
2021/04/18 09:30:10;;;;;;;12.27;7.30;;;11.70;70.80;;;;;;4940944;28;20038;-78
2021/04/18 09:32:38;;;;;;;12.50;7.13;;;11.50;72.10;;;;;;4963086;28;20108;-77
2021/04/18 09:35:05;;;;;;;11.18;7.13;;;11.40;72.50;;;;;;4960566;28;20034;-77
2021/04/18 09:37:35;;;;;;;11.23;6.85;;;11.40;73.20;;;;;;4940719;28;20102;-79
2021/04/18 09:40:08;;;;;;;15.57;7.35;;;11.40;73.30;;;;;;4941501;28;20054;-76
2021/04/18 09:42:36;;;;;;;12.80;7.75;;;11.40;73.90;;;;;;4952122;28;20059;-77
2021/04/18 09:45:14;;;;;;;16.65;9.90;;;11.30;74.50;;;;;;4944318;28;20081;-78
2021/04/18 09:47:41;;;;;;;10.50;6.70;;;11.20;75.90;;;;;;4954830;28;20101;-78
2021/04/18 09:50:30;;;;;;;11.85;7.43;;;11.10;75.50;;;;;;4940950;28;20162;-77
2021/04/18 09:53:14;;;;;;;11.18;8.05;;;11.10;76.60;;;;;;4954453;28;20667;-76
2021/04/18 09:55:57;;;;;;;13.57;8.10;;;11.00;77.00;;;;;;4938870;28;20061;-77
2021/04/18 09:58:36;;;;;;;13.00;8.45;;;10.90;77.50;;;;;;4942036;28;20027;-78
2021/04/18 10:01:03;;;;;;;15.13;9.38;;;10.90;77.50;;;;;;4948992;28;20023;-79
2021/04/18 10:03:40;;;;;;;13.60;9.43;;;10.80;78.10;;;;;;4936322;28;20073;-77
2021/04/18 10:06:07;;;;;;;12.60;8.35;;;10.80;79.40;;;;;;4941114;28;20062;-78
2021/04/18 10:08:34;;;;;;;13.75;8.65;;;10.80;79.10;;;;;;4955454;28;20066;-75
2021/04/18 10:11:09;;;;;;;15.18;9.32;;;10.80;80.00;;;;;;4938318;28;20314;-77
2021/04/18 10:14:04;;;;;;;13.27;8.50;;;10.70;81.50;;;;;;4962242;28;20031;-82
2021/04/18 10:16:40;;;;;;;19.55;10.05;;;11.10;83.30;;;;;;4945264;28;20079;-78
2021/04/18 10:19:17;;;;;;;15.43;9.20;;;10.80;82.70;;;;;;4961198;28;20454;-81
2021/04/18 10:22:05;;;;;;;16.85;9.55;;;10.90;82.50;;;;;;4944097;28;20030;-77
2021/04/18 10:24:34;;;;;;;15.23;9.43;;;10.90;83.10;;;;;;4955111;28;20228;-77
2021/04/18 10:27:03;;;;;;;13.57;9.20;;;10.90;82.60;;;;;;4938666;28;20200;-81
2021/04/18 10:29:29;;;;;;;15.35;9.90;;;10.80;84.90;;;;;;4940102;28;20030;-78
2021/04/18 10:31:55;;;;;;;16.10;10.30;;;10.60;85.80;;;;;;4935348;28;20038;-77
2021/04/18 10:34:20;;;;;;;15.63;9.32;;;10.80;90.40;;;;;;4938645;28;20038;-78
2021/04/18 10:36:47;;;;;;;16.38;10.40;;;10.60;91.00;;;;;;4949273;28;20007;-81
2021/04/18 10:39:14;;;;;;;17.00;10.23;;;10.50;91.10;;;;;;4952329;28;21149;-82
2021/04/18 10:41:46;;;;;;;16.90;10.65;;;10.50;92.20;;;;;;4939725;28;20066;-79
2021/04/18 10:44:16;;;;;;;15.88;10.23;;;10.90;92.40;;;;;;4953089;28;20037;-79
2021/04/18 10:46:53;;;;;;;15.05;9.93;;;10.40;93.00;;;;;;4954383;28;20113;-78
2021/04/18 10:49:19;;;;;;;17.58;9.55;;;10.40;92.50;;;;;;4946784;28;20031;-80
2021/04/18 10:51:45;;;;;;;15.23;9.70;;;10.30;92.70;;;;;;4933734;28;20034;-77
2021/04/18 10:54:11;;;;;;;17.35;10.45;;;10.30;92.50;;;;;;4956493;28;20030;-79
2021/04/18 10:56:37;;;;;;;16.50;9.43;;;10.40;93.20;;;;;;4939222;28;20086;-79
2021/04/18 10:59:03;;;;;;;15.95;10.40;;;10.70;92.60;;;;;;4945254;28;20027;-79
2021/04/18 11:01:30;;;;;;;15.35;10.30;;;10.80;92.40;;;;;;4948394;28;20489;-83
2021/04/18 11:03:56;;;;;;;15.73;9.55;;;10.80;93.40;;;;;;4943858;28;20046;-78
2021/04/18 11:06:26;;;;;;;15.88;9.73;;;11.00;93.00;;;;;;4958285;28;20027;-75
2021/04/18 11:08:54;;;;;;;16.90;9.82;;;11.30;91.20;;;;;;4953549;28;20030;-78
2021/04/18 11:11:23;;;;;;;14.88;9.63;;;11.50;91.10;;;;;;4942028;28;21100;-77
2021/04/18 11:13:49;;;;;;;16.67;9.77;;;11.80;89.80;;;;;;4956954;28;20077;-76
2021/04/18 11:16:18;;;;;;;15.95;10.20;;;11.80;87.80;;;;;;4945610;28;20497;-78
2021/04/18 11:18:45;;;;;;;17.42;10.07;;;11.40;90.20;;;;;;4948442;28;20126;-77
2021/04/18 11:21:14;;;;;;;16.35;10.32;;;11.50;90.60;;;;;;4946519;28;20085;-77
2021/04/18 11:23:40;;;;;;;16.33;9.63;;;11.50;91.80;;;;;;4966499;28;20038;-76
2021/04/18 11:26:06;;;;;;;16.70;10.05;;;11.60;89.70;;;;;;4966234;28;20042;-76
2021/04/18 11:28:31;;;;;;;15.30;9.77;;;11.70;89.40;;;;;;4949639;28;20027;-77
2021/04/18 11:30:58;;;;;;;16.45;9.63;;;11.80;89.40;;;;;;4948178;28;20206;-75
2021/04/18 11:33:24;;;;;;;17.80;10.93;;;11.90;90.50;;;;;;4946390;28;20031;-77
2021/04/18 11:35:50;;;;;;;16.33;9.95;;;12.00;89.60;;;;;;4941232;28;20023;-78
2021/04/18 11:38:16;;;;;;;14.80;9.18;;;12.30;86.40;;;;;;4963700;28;20026;-77
2021/04/18 11:40:41;;;;;;;16.00;9.20;;;12.00;86.80;;;;;;4939501;28;20031;-79
2021/04/18 11:43:07;;;;;;;13.75;9.63;;;12.00;86.50;;;;;;4958292;28;20042;-77
2021/04/18 11:45:33;;;;;;;15.00;9.10;;;11.90;86.80;;;;;;4934577;28;20027;-76
2021/04/18 11:47:59;;;;;;;15.88;9.30;;;12.40;86.70;;;;;;4940133;28;20039;-80
2021/04/18 11:50:25;;;;;;;15.00;9.13;;;11.70;87.40;;;;;;4947181;28;20026;-78
2021/04/18 11:52:51;;;;;;;18.20;9.50;;;11.60;86.50;;;;;;4949351;28;20059;-78
2021/04/18 11:55:19;;;;;;;16.55;9.57;;;11.60;87.60;;;;;;4940488;28;20393;-79
2021/04/18 11:57:45;;;;;;;22.13;12.35;;;11.60;88.20;;;;;;4945645;28;20023;-76
2021/04/18 12:00:12;;;;;;;15.27;8.90;;;11.50;89.90;;;;;;4947693;28;20481;-75
2021/04/18 12:02:43;;;;;;;15.07;9.05;;;11.50;91.30;;;;;;4940494;28;20032;-78
2021/04/18 12:05:09;;;;;;;14.77;8.98;;;11.60;88.80;;;;;;4944660;28;20086;-76
2021/04/18 12:07:37;;;;;;;13.02;8.73;;;11.80;86.70;;;;;;4965732;28;20031;-78
2021/04/18 12:10:05;;;;;;;14.35;8.60;;;11.80;86.40;;;;;;4967273;28;20064;-78
2021/04/18 12:12:31;;;;;;;19.13;10.18;;;11.90;86.30;;;;;;4967556;28;20023;-77
2021/04/18 12:14:57;;;;;;;14.63;9.50;;;12.00;85.70;;;;;;4949842;28;20910;-76
2021/04/18 12:17:26;;;;;;;13.63;8.32;;;12.00;86.40;;;;;;4948831;28;20027;-78
2021/04/18 12:19:55;;;;;;;16.00;9.00;;;12.20;85.60;;;;;;4949597;28;20513;-78
2021/04/18 12:22:21;;;;;;;14.52;9.55;;;12.30;84.70;;;;;;4962786;28;21546;-76
2021/04/18 12:24:47;;;;;;;14.23;8.95;;;12.40;83.90;;;;;;4954738;28;20031;-78
2021/04/18 12:27:15;;;;;;;15.65;9.68;;;12.40;84.20;;;;;;4950600;28;20035;-78
2021/04/18 12:29:44;;;;;;;15.13;7.82;;;12.60;82.40;;;;;;4945132;28;20041;-77
2021/04/18 12:32:15;;;;;;;13.98;9.35;;;12.60;83.40;;;;;;4949943;28;20034;-78
2021/04/18 12:34:44;;;;;;;18.52;8.90;;;12.60;84.90;;;;;;4960977;28;20389;-75
2021/04/18 12:37:10;;;;;;;11.77;8.40;;;12.60;84.10;;;;;;4947572;28;20187;-77
2021/04/18 12:39:36;;;;;;;14.50;8.30;;;12.70;82.80;;;;;;4947840;28;20106;-76
2021/04/18 12:42:02;;;;;;;14.73;8.80;;;12.80;82.70;;;;;;4952128;28;20085;-75
2021/04/18 12:44:28;;;;;;;12.98;7.82;;;12.90;83.10;;;;;;4950233;28;20043;-77
2021/04/18 12:46:54;;;;;;;12.05;8.35;;;13.00;81.50;;;;;;4942837;28;20048;-75
2021/04/18 12:49:21;;;;;;;16.60;8.32;;;13.30;81.30;;;;;;4945566;28;20053;-76
2021/04/18 12:51:46;;;;;;;11.85;8.05;;;13.40;81.80;;;;;;4945799;28;20035;-77